Time;durP1;ratioP1;P1;durP2;ratioP2;P2;SDS_P1;SDS_P2;PMS_P1;PMS_P2;Temp;Humidity;BMP_temperature;BMP_pressure;BME280_temperature;BME280_humidity;BME280_pressure;Samples;Min_cycle;Max_cycle;Signal;HPM_P1;HPM_P2
2022/09/17 00:01:22;;;;;;;4.47;3.30;;;20.00;99.90;;;;;;5011490;28;20181;-73
2022/09/17 00:03:52;;;;;;;4.83;3.20;;;20.00;99.90;;;;;;4989336;28;20200;-73
2022/09/17 00:06:20;;;;;;;6.90;3.27;;;20.00;99.90;;;;;;4989674;28;20186;-73
2022/09/17 00:08:46;;;;;;;5.20;3.07;;;19.90;99.90;;;;;;4997681;28;20542;-73
2022/09/17 00:11:24;;;;;;;7.93;3.40;;;19.90;99.90;;;;;;5011147;28;20180;-73
2022/09/17 00:13:53;;;;;;;4.13;3.23;;;20.00;99.90;;;;;;4994991;28;20928;-73
2022/09/17 00:16:36;;;;;;;5.37;3.57;;;20.00;99.90;;;;;;4990334;28;20308;-73
2022/09/17 00:19:05;;;;;;;6.60;3.37;;;20.00;99.90;;;;;;5008017;28;20259;-73
2022/09/17 00:21:31;;;;;;;5.20;3.63;;;19.90;99.90;;;;;;5008438;28;20185;-73
2022/09/17 00:24:02;;;;;;;6.03;3.83;;;20.00;99.90;;;;;;5004801;28;20189;-73
2022/09/17 00:26:31;;;;;;;5.73;3.50;;;20.00;99.90;;;;;;5012317;28;20181;-73
2022/09/17 00:28:58;;;;;;;5.27;4.10;;;20.10;99.90;;;;;;5011017;28;20192;-73
2022/09/17 00:31:26;;;;;;;7.33;3.90;;;20.00;99.90;;;;;;4994596;28;20659;-73
2022/09/17 00:33:55;;;;;;;5.43;3.83;;;20.00;99.90;;;;;;5010837;28;20177;-73
2022/09/17 00:36:22;;;;;;;8.17;4.10;;;20.00;99.90;;;;;;4994904;28;20691;-73
2022/09/17 00:38:55;;;;;;;5.57;3.43;;;20.00;99.90;;;;;;4976537;28;20224;-73
2022/09/17 00:41:26;;;;;;;4.93;3.40;;;20.00;99.90;;;;;;4991234;28;20174;-70
2022/09/17 00:44:21;;;;;;;6.90;3.93;;;19.90;99.90;;;;;;4974962;28;20185;-73
2022/09/17 00:46:49;;;;;;;5.70;4.07;;;19.90;99.90;;;;;;5008002;28;20220;-73
2022/09/17 00:49:29;;;;;;;5.67;4.00;;;19.90;99.90;;;;;;5010567;28;20212;-73
2022/09/17 00:51:59;;;;;;;6.80;4.33;;;20.00;99.90;;;;;;5010382;28;20185;-73
2022/09/17 00:54:26;;;;;;;4.37;3.97;;;19.90;99.90;;;;;;5007284;28;20186;-73
2022/09/17 00:56:53;;;;;;;7.73;4.30;;;19.90;99.90;;;;;;4988317;28;20188;-73
2022/09/17 00:59:23;;;;;;;8.10;4.47;;;19.90;99.90;;;;;;5018513;28;20227;-73
2022/09/17 01:01:51;;;;;;;7.93;4.00;;;19.80;99.90;;;;;;5010232;28;20642;-73
2022/09/17 01:04:20;;;;;;;6.30;4.20;;;19.80;99.90;;;;;;5010207;28;20595;-73
2022/09/17 01:07:04;;;;;;;5.60;4.43;;;19.90;99.90;;;;;;5003680;28;20219;-73
2022/09/17 01:10:09;;;;;;;6.30;4.50;;;20.00;99.90;;;;;;4976335;28;20276;-73
2022/09/17 01:13:02;;;;;;;4.90;4.40;;;20.00;99.90;;;;;;5002696;28;20195;-73
2022/09/17 01:15:48;;;;;;;8.10;4.40;;;20.00;99.90;;;;;;5011514;28;20180;-73
2022/09/17 01:18:40;;;;;;;4.67;3.80;;;20.00;99.90;;;;;;4983277;28;20188;-73
2022/09/17 01:21:41;;;;;;;4.03;3.63;;;20.00;99.90;;;;;;4993877;28;20203;-73
2022/09/17 01:25:08;;;;;;;5.80;3.60;;;19.90;99.90;;;;;;5009511;28;20287;-73
2022/09/17 01:28:32;;;;;;;5.87;3.60;;;19.90;99.90;;;;;;4993011;28;20205;-73
2022/09/17 01:31:34;;;;;;;5.33;3.27;;;19.80;99.90;;;;;;4994350;28;20208;-72
2022/09/17 01:34:40;;;;;;;6.00;3.03;;;19.70;99.90;;;;;;4984245;28;20238;-73
2022/09/17 01:37:15;;;;;;;6.07;3.43;;;19.60;99.90;;;;;;5007157;28;20172;-73
2022/09/17 01:40:07;;;;;;;5.67;3.37;;;19.60;99.90;;;;;;4999180;28;20631;-73
2022/09/17 01:42:49;;;;;;;4.80;3.53;;;19.60;99.90;;;;;;4993048;28;20188;-73
2022/09/17 01:45:26;;;;;;;5.00;3.23;;;19.60;99.90;;;;;;4976990;28;20181;-73
2022/09/17 01:48:04;;;;;;;4.53;2.97;;;19.60;99.90;;;;;;4970242;28;20200;-73
2022/09/17 01:50:39;;;;;;;8.07;3.87;;;19.50;99.90;;;;;;4989620;28;20268;-73
2022/09/17 01:53:09;;;;;;;5.93;3.40;;;19.50;99.90;;;;;;4989803;28;20193;-73
2022/09/17 01:55:39;;;;;;;3.70;3.37;;;19.50;99.90;;;;;;4995778;28;20201;-73
2022/09/17 01:58:26;;;;;;;7.50;3.47;;;19.50;99.90;;;;;;4993096;28;20185;-73
2022/09/17 02:01:02;;;;;;;5.03;2.90;;;19.60;99.90;;;;;;4992836;28;20188;-73
2022/09/17 02:04:11;;;;;;;7.23;2.93;;;19.60;99.90;;;;;;5005956;28;20234;-73
2022/09/17 02:06:45;;;;;;;5.37;3.20;;;19.70;99.90;;;;;;4966596;28;20197;-73
2022/09/17 02:09:47;;;;;;;4.83;3.10;;;19.80;99.90;;;;;;4963953;28;20193;-73
2022/09/17 02:12:24;;;;;;;6.00;2.93;;;19.90;99.90;;;;;;5003724;28;20268;-73
2022/09/17 02:15:01;;;;;;;7.57;3.60;;;19.90;99.90;;;;;;4989087;28;20675;-73
2022/09/17 02:18:24;;;;;;;5.40;3.30;;;19.90;99.90;;;;;;5000221;28;20272;-73
2022/09/17 02:21:26;;;;;;;4.47;3.13;;;20.00;99.90;;;;;;4990060;28;20181;-73
2022/09/17 02:24:00;;;;;;;7.20;2.87;;;20.00;99.90;;;;;;5010152;28;20319;-73
2022/09/17 02:26:27;;;;;;;3.87;2.97;;;19.90;99.90;;;;;;5008912;28;20204;-70
2022/09/17 02:29:04;;;;;;;3.00;2.47;;;19.90;99.90;;;;;;4986168;28;20182;-72
2022/09/17 02:31:30;;;;;;;3.33;2.90;;;19.90;99.90;;;;;;5015749;28;20185;-72
2022/09/17 02:34:03;;;;;;;3.67;2.90;;;19.90;99.90;;;;;;5007514;28;20193;-72
2022/09/17 02:36:31;;;;;;;7.67;2.60;;;19.80;99.90;;;;;;4985204;28;20227;-72
2022/09/17 02:39:03;;;;;;;3.87;2.60;;;19.80;99.90;;;;;;4992035;28;20268;-72
2022/09/17 02:42:11;;;;;;;4.80;2.83;;;19.80;99.90;;;;;;4996321;28;20232;-72
2022/09/17 02:44:56;;;;;;;3.17;2.47;;;19.70;99.90;;;;;;5003407;28;20212;-72
2022/09/17 02:48:04;;;;;;;4.93;2.53;;;19.70;99.90;;;;;;4972875;28;20267;-72
2022/09/17 02:51:04;;;;;;;6.37;2.70;;;19.80;99.90;;;;;;4986813;28;20745;-72
2022/09/17 02:54:00;;;;;;;5.37;2.60;;;19.80;99.90;;;;;;4999640;28;20238;-72
2022/09/17 02:56:47;;;;;;;3.90;2.60;;;19.80;99.90;;;;;;4996563;28;20202;-72
2022/09/17 02:59:41;;;;;;;6.83;2.73;;;19.90;99.90;;;;;;4999487;28;20188;-72
2022/09/17 03:02:36;;;;;;;6.20;2.73;;;19.90;99.90;;;;;;5012314;28;20180;-72
2022/09/17 03:05:05;;;;;;;4.97;2.80;;;19.90;99.90;;;;;;4985761;28;20681;-72
2022/09/17 03:07:31;;;;;;;4.80;2.37;;;19.90;99.90;;;;;;4993586;28;20173;-72
2022/09/17 03:09:58;;;;;;;4.13;2.50;;;19.90;99.90;;;;;;5000831;28;20185;-72
2022/09/17 03:12:26;;;;;;;7.47;2.57;;;19.90;99.90;;;;;;5007974;28;20196;-72
2022/09/17 03:14:52;;;;;;;4.93;2.60;;;19.90;99.90;;;;;;4978472;28;20204;-72
2022/09/17 03:17:19;;;;;;;6.07;2.73;;;19.90;99.90;;;;;;4989801;28;20692;-72
2022/09/17 03:19:45;;;;;;;5.63;2.43;;;19.90;99.90;;;;;;5009840;28;20222;-72
2022/09/17 03:22:12;;;;;;;4.20;2.60;;;19.90;99.90;;;;;;4992311;28;20208;-73
2022/09/17 03:24:38;;;;;;;3.47;2.20;;;19.90;99.90;;;;;;5016619;28;20193;-71
2022/09/17 03:27:04;;;;;;;5.67;2.70;;;19.90;99.90;;;;;;4994518;28;20270;-71
2022/09/17 03:29:32;;;;;;;5.57;2.80;;;19.90;99.90;;;;;;5001718;28;20315;-73
2022/09/17 03:31:59;;;;;;;3.77;2.70;;;19.90;99.90;;;;;;5022029;28;20243;-72
2022/09/17 03:34:26;;;;;;;4.20;2.43;;;19.90;99.90;;;;;;5008406;28;20224;-71
2022/09/17 03:36:52;;;;;;;4.77;2.37;;;19.80;99.90;;;;;;5003170;28;20231;-73
2022/09/17 03:39:18;;;;;;;3.73;2.50;;;19.80;99.90;;;;;;5008098;28;20179;-71
2022/09/17 03:41:45;;;;;;;4.47;2.53;;;19.80;99.90;;;;;;5004891;28;20189;-71
2022/09/17 03:44:14;;;;;;;4.40;2.50;;;19.80;99.90;;;;;;4987653;28;20182;-71
2022/09/17 03:46:41;;;;;;;7.83;2.50;;;19.80;99.90;;;;;;4983191;28;20181;-73
2022/09/17 03:49:07;;;;;;;2.90;2.37;;;19.80;99.90;;;;;;5003449;28;20212;-73
2022/09/17 03:51:34;;;;;;;3.83;2.63;;;19.80;99.90;;;;;;5020537;28;20622;-71
2022/09/17 03:54:01;;;;;;;3.17;2.30;;;19.80;99.90;;;;;;5018855;28;20177;-71
2022/09/17 03:56:29;;;;;;;6.40;2.47;;;19.80;99.90;;;;;;5020402;28;20192;-71
2022/09/17 03:59:00;;;;;;;3.77;2.50;;;19.80;99.90;;;;;;5018378;28;20566;-71
2022/09/17 04:01:28;;;;;;;5.63;2.50;;;19.80;99.90;;;;;;5001542;28;20200;-71
2022/09/17 04:03:55;;;;;;;6.20;2.40;;;19.80;99.90;;;;;;4990532;28;20200;-71
2022/09/17 04:06:21;;;;;;;5.87;2.50;;;19.80;99.90;;;;;;5006648;28;20197;-71
2022/09/17 04:08:47;;;;;;;9.77;2.77;;;19.80;99.90;;;;;;5009875;28;20548;-71
2022/09/17 04:11:13;;;;;;;6.40;2.73;;;19.80;99.90;;;;;;5003967;28;20534;-71
2022/09/17 04:13:41;;;;;;;3.47;2.43;;;19.90;99.90;;;;;;4995576;28;20286;-73
2022/09/17 04:16:07;;;;;;;5.17;2.40;;;19.90;99.90;;;;;;4978628;28;20251;-73
2022/09/17 04:18:34;;;;;;;6.43;2.40;;;20.00;99.90;;;;;;4997213;28;20646;-71
2022/09/17 04:21:00;;;;;;;6.67;2.57;;;20.10;99.90;;;;;;5010043;28;20349;-70
2022/09/17 04:23:27;;;;;;;7.20;2.60;;;20.10;99.90;;;;;;4993567;28;20184;-73
2022/09/17 04:25:54;;;;;;;5.27;2.50;;;20.10;99.90;;;;;;5010512;28;20347;-73
2022/09/17 04:28:20;;;;;;;5.50;2.60;;;20.10;99.90;;;;;;4995923;28;20742;-71
2022/09/17 04:30:48;;;;;;;4.73;2.70;;;20.20;99.90;;;;;;4983730;28;20195;-73
2022/09/17 04:33:14;;;;;;;4.43;2.63;;;20.20;99.90;;;;;;5009463;28;20196;-73
2022/09/17 04:35:40;;;;;;;3.83;2.53;;;20.20;99.90;;;;;;5007975;28;20243;-73
2022/09/17 04:38:08;;;;;;;5.40;2.40;;;20.30;99.90;;;;;;5001632;28;20234;-73
2022/09/17 04:40:35;;;;;;;3.27;2.40;;;20.30;99.90;;;;;;5006402;28;20188;-73
2022/09/17 04:43:03;;;;;;;6.40;2.80;;;20.30;99.90;;;;;;5011609;28;20196;-73
2022/09/17 04:45:32;;;;;;;4.33;2.47;;;20.40;99.90;;;;;;4973610;28;20678;-73
2022/09/17 04:47:58;;;;;;;4.70;2.40;;;20.40;99.90;;;;;;5012038;28;20187;-73
2022/09/17 04:50:25;;;;;;;3.80;2.50;;;20.50;99.90;;;;;;4994432;28;20243;-73
2022/09/17 04:52:51;;;;;;;6.73;2.67;;;20.60;99.90;;;;;;5008663;28;20204;-73
2022/09/17 04:55:17;;;;;;;6.00;2.50;;;20.70;99.90;;;;;;5001124;28;20208;-73
2022/09/17 04:57:53;;;;;;;5.63;2.60;;;20.70;99.90;;;;;;4994248;28;20188;-73
2022/09/17 05:00:21;;;;;;;2.53;2.20;;;20.90;99.90;;;;;;5016845;28;20196;-73
2022/09/17 05:02:52;;;;;;;3.40;2.00;;;21.00;99.90;;;;;;5019650;28;20554;-73
2022/09/17 05:05:20;;;;;;;7.73;2.20;;;21.10;99.90;;;;;;5026878;28;20197;-73
2022/09/17 05:07:47;;;;;;;4.27;2.20;;;21.40;99.90;;;;;;5006783;28;20216;-73
2022/09/17 05:10:16;;;;;;;4.13;2.30;;;21.50;99.90;;;;;;4984767;28;20189;-73
2022/09/17 05:12:50;;;;;;;2.87;2.20;;;21.70;99.90;;;;;;5010114;28;20203;-73
2022/09/17 05:15:17;;;;;;;3.83;2.13;;;21.90;99.90;;;;;;4985352;28;20576;-72
2022/09/17 05:17:45;;;;;;;4.93;1.93;;;22.00;99.90;;;;;;4977538;28;20193;-73
2022/09/17 05:20:13;;;;;;;5.43;2.30;;;22.10;99.90;;;;;;4973949;28;20178;-73
2022/09/17 05:22:48;;;;;;;5.27;2.30;;;22.10;99.90;;;;;;4992403;28;20272;-73
2022/09/17 05:25:18;;;;;;;4.15;2.33;;;22.30;99.90;;;;;;5006524;28;20291;-73
2022/09/17 05:27:44;;;;;;;2.97;2.17;;;22.40;99.90;;;;;;4989290;28;20275;-73
2022/09/17 05:30:12;;;;;;;5.25;2.47;;;22.70;99.90;;;;;;5014775;28;20207;-73
2022/09/17 05:32:39;;;;;;;5.07;2.85;;;23.00;99.90;;;;;;4992960;28;20185;-73
2022/09/17 05:35:07;;;;;;;5.13;2.40;;;23.00;99.90;;;;;;4980766;28;20230;-73
2022/09/17 05:37:33;;;;;;;3.78;2.20;;;23.20;99.90;;;;;;5008285;28;20267;-73
2022/09/17 05:40:00;;;;;;;2.42;2.03;;;23.50;99.90;;;;;;5004686;28;20189;-73
2022/09/17 05:42:26;;;;;;;6.65;2.28;;;23.50;99.90;;;;;;5010742;28;20185;-73
2022/09/17 05:44:53;;;;;;;4.80;2.30;;;23.50;99.90;;;;;;4983746;28;20866;-73
2022/09/17 05:47:19;;;;;;;5.05;2.53;;;23.50;99.90;;;;;;4989795;28;20192;-73
2022/09/17 05:49:45;;;;;;;5.03;2.72;;;23.70;99.90;;;;;;4974284;28;20247;-73
2022/09/17 05:52:13;;;;;;;4.68;2.45;;;24.00;99.90;;;;;;4990418;28;20693;-73
2022/09/17 05:54:39;;;;;;;4.05;2.00;;;23.90;99.90;;;;;;5015068;28;20208;-73
2022/09/17 05:57:05;;;;;;;8.90;2.42;;;23.80;99.90;;;;;;5009449;28;20663;-73
2022/09/17 05:59:32;;;;;;;6.15;2.35;;;23.90;99.90;;;;;;5008061;28;20185;-73
2022/09/17 06:01:58;;;;;;;3.50;2.42;;;23.60;99.90;;;;;;4995651;28;20185;-73
2022/09/17 06:04:25;;;;;;;6.50;2.58;;;23.60;99.90;;;;;;4996891;28;20182;-73
2022/09/17 06:06:51;;;;;;;5.50;2.72;;;23.60;99.90;;;;;;5007277;28;20219;-73
2022/09/17 06:09:18;;;;;;;6.15;2.58;;;23.70;99.90;;;;;;5009071;28;20215;-73
2022/09/17 06:11:44;;;;;;;3.50;2.40;;;23.60;99.90;;;;;;4979807;28;20202;-73
2022/09/17 06:14:10;;;;;;;5.00;2.30;;;23.70;99.90;;;;;;4976266;28;20204;-73
2022/09/17 06:16:37;;;;;;;5.35;2.80;;;23.60;99.90;;;;;;5000651;28;20185;-73
2022/09/17 06:19:04;;;;;;;2.95;2.47;;;23.70;99.90;;;;;;5001225;28;20180;-73
2022/09/17 06:21:30;;;;;;;2.65;2.33;;;23.80;99.90;;;;;;5010226;28;20184;-73
2022/09/17 06:23:57;;;;;;;4.35;2.40;;;23.90;99.90;;;;;;4992481;28;20200;-73
2022/09/17 06:26:24;;;;;;;6.05;2.50;;;24.00;99.90;;;;;;4989384;28;20185;-73
2022/09/17 06:28:50;;;;;;;3.97;2.45;;;24.20;99.90;;;;;;4956918;28;20271;-73
2022/09/17 06:31:17;;;;;;;4.20;2.75;;;24.20;99.90;;;;;;4972332;28;20193;-73
2022/09/17 06:33:43;;;;;;;7.50;2.70;;;24.20;99.90;;;;;;5006404;28;20196;-73
2022/09/17 06:36:11;;;;;;;8.30;2.80;;;24.30;99.90;;;;;;5001819;28;20225;-73
2022/09/17 06:38:37;;;;;;;7.07;2.75;;;24.30;99.90;;;;;;5000318;28;20190;-73
2022/09/17 06:41:04;;;;;;;5.05;2.60;;;24.30;99.90;;;;;;5014000;28;20185;-73
2022/09/17 06:43:31;;;;;;;4.53;2.35;;;24.30;99.90;;;;;;5016477;28;20267;-73
2022/09/17 06:46:07;;;;;;;9.65;2.70;;;24.40;99.90;;;;;;5009145;28;20201;-73
2022/09/17 06:48:35;;;;;;;3.42;2.33;;;24.50;99.90;;;;;;5004397;28;20196;-73
2022/09/17 06:51:09;;;;;;;6.10;2.78;;;24.60;99.90;;;;;;4989699;28;20570;-73
2022/09/17 06:53:39;;;;;;;8.77;2.88;;;24.80;99.90;;;;;;5005352;28;20185;-73
2022/09/17 06:56:08;;;;;;;5.38;2.75;;;24.90;99.90;;;;;;4986192;28;20812;-73
2022/09/17 06:58:42;;;;;;;7.72;2.45;;;24.90;99.90;;;;;;4972768;28;20219;-73
2022/09/17 07:01:10;;;;;;;5.50;2.65;;;24.90;99.90;;;;;;5009460;28;20878;-73
2022/09/17 07:03:37;;;;;;;6.60;2.75;;;25.00;99.90;;;;;;5008254;28;20181;-73
2022/09/17 07:06:08;;;;;;;15.30;2.83;;;25.10;99.90;;;;;;5008149;28;20674;-73
2022/09/17 07:08:35;;;;;;;7.72;2.90;;;25.10;99.90;;;;;;4985557;28;20940;-73
2022/09/17 07:11:02;;;;;;;7.82;2.70;;;25.20;99.90;;;;;;4993497;28;20221;-73
2022/09/17 07:13:28;;;;;;;2.85;2.40;;;25.20;99.90;;;;;;4988111;28;20242;-73
2022/09/17 07:15:58;;;;;;;4.25;2.38;;;25.20;99.90;;;;;;5010675;28;21005;-73
2022/09/17 07:18:25;;;;;;;3.55;2.10;;;25.20;99.90;;;;;;5001785;28;20193;-73
2022/09/17 07:20:54;;;;;;;3.83;2.10;;;25.20;99.90;;;;;;4998737;28;20188;-73
2022/09/17 07:23:23;;;;;;;4.68;2.47;;;25.30;99.90;;;;;;5013201;28;20192;-73
2022/09/17 07:25:55;;;;;;;4.55;2.10;;;25.30;99.90;;;;;;4995714;28;20196;-73
2022/09/17 07:28:22;;;;;;;4.00;2.38;;;25.40;99.90;;;;;;4994866;28;20185;-70
2022/09/17 07:30:50;;;;;;;7.22;2.63;;;25.60;99.90;;;;;;4995720;28;20176;-71
2022/09/17 07:33:22;;;;;;;10.20;2.65;;;25.70;99.90;;;;;;4977330;28;20634;-73
2022/09/17 07:36:07;;;;;;;7.95;2.75;;;25.90;99.90;;;;;;4997913;28;20205;-70
2022/09/17 07:38:34;;;;;;;8.18;2.53;;;26.10;99.90;;;;;;4995797;28;20208;-73
2022/09/17 07:41:10;;;;;;;10.32;2.80;;;26.20;99.90;;;;;;4995763;28;20197;-70
2022/09/17 07:43:36;;;;;;;11.35;2.80;;;26.30;99.90;;;;;;5012450;28;20595;-71
2022/09/17 07:46:05;;;;;;;5.85;2.78;;;26.30;99.90;;;;;;4995597;28;20188;-71
2022/09/17 07:48:32;;;;;;;8.00;2.92;;;26.40;99.90;;;;;;5010053;28;20267;-70
2022/09/17 07:50:59;;;;;;;5.20;3.25;;;26.50;99.90;;;;;;4993888;28;20200;-70
2022/09/17 07:53:26;;;;;;;10.05;2.92;;;26.60;99.90;;;;;;5016976;28;20212;-70
2022/09/17 07:55:56;;;;;;;9.20;3.10;;;26.70;99.90;;;;;;5013203;28;20212;-70
2022/09/17 07:58:35;;;;;;;8.07;2.90;;;26.80;99.90;;;;;;5013084;28;20176;-70
2022/09/17 08:01:09;;;;;;;5.72;2.83;;;26.80;99.90;;;;;;5008478;28;20198;-70
2022/09/17 08:03:38;;;;;;;5.90;3.03;;;26.80;99.90;;;;;;5013284;28;20205;-70
2022/09/17 08:06:11;;;;;;;6.78;2.63;;;27.00;99.90;;;;;;5007624;28;20645;-70
2022/09/17 08:08:39;;;;;;;9.85;3.65;;;27.00;99.90;;;;;;4991704;28;20192;-70
2022/09/17 08:11:16;;;;;;;9.80;4.20;;;27.10;99.90;;;;;;5007400;28;20188;-71
2022/09/17 08:13:46;;;;;;;6.97;3.40;;;27.20;99.90;;;;;;5010251;28;20192;-70
2022/09/17 08:16:12;;;;;;;9.13;3.67;;;27.20;99.90;;;;;;4994114;28;20243;-70
2022/09/17 08:18:39;;;;;;;7.78;4.20;;;27.30;99.90;;;;;;5010776;28;20193;-70
2022/09/17 08:21:09;;;;;;;10.73;4.63;;;27.40;99.90;;;;;;4996339;28;20192;-71
2022/09/17 08:23:38;;;;;;;9.90;3.92;;;27.40;99.90;;;;;;5008031;28;20247;-70
2022/09/17 08:26:08;;;;;;;9.88;3.78;;;27.30;99.90;;;;;;4996206;28;20593;-70
2022/09/17 08:28:35;;;;;;;8.75;4.50;;;27.40;99.90;;;;;;5002311;28;20259;-70
2022/09/17 08:31:07;;;;;;;5.28;3.60;;;27.50;99.90;;;;;;4990725;28;20192;-70
2022/09/17 08:33:37;;;;;;;8.05;4.00;;;27.50;99.90;;;;;;4978623;28;20191;-69
2022/09/17 08:36:07;;;;;;;12.00;4.32;;;27.50;99.90;;;;;;4993281;28;20206;-70
2022/09/17 08:38:38;;;;;;;7.70;4.20;;;27.50;99.90;;;;;;4975019;28;20205;-69
2022/09/17 08:41:37;;;;;;;7.93;4.72;;;27.60;99.90;;;;;;4974764;28;20182;-70
2022/09/17 08:44:12;;;;;;;8.85;4.38;;;27.70;99.90;;;;;;4974714;28;20200;-70
2022/09/17 08:46:53;;;;;;;10.20;4.45;;;27.70;99.90;;;;;;5003893;28;20681;-69
2022/09/17 08:49:52;;;;;;;13.85;4.15;;;27.90;99.90;;;;;;5020109;28;20219;-70
2022/09/17 08:52:36;;;;;;;8.80;4.22;;;28.00;99.90;;;;;;4954469;28;20202;-70
2022/09/17 08:55:22;;;;;;;8.15;4.43;;;28.00;99.90;;;;;;4993955;28;20207;-69
2022/09/17 08:58:16;;;;;;;4.68;4.10;;;28.10;99.90;;;;;;4987860;28;20240;-68
2022/09/17 09:01:03;;;;;;;9.05;4.35;;;28.20;99.90;;;;;;4997645;28;20188;-69
2022/09/17 09:04:19;;;;;;;8.10;4.70;;;28.20;99.90;;;;;;5009662;28;20185;-69
2022/09/17 09:07:03;;;;;;;9.05;4.07;;;28.40;99.90;;;;;;4983994;28;20741;-70
2022/09/17 09:10:05;;;;;;;5.05;3.95;;;28.50;99.90;;;;;;5006867;28;20655;-74
2022/09/17 09:12:35;;;;;;;10.57;3.67;;;28.60;99.90;;;;;;4992025;28;20200;-70
2022/09/17 09:15:14;;;;;;;5.85;3.30;;;28.70;99.90;;;;;;5003020;28;20200;-70
2022/09/17 09:17:48;;;;;;;6.20;3.97;;;28.80;99.90;;;;;;4981246;28;20192;-70
2022/09/17 09:20:50;;;;;;;11.50;3.80;;;28.90;99.90;;;;;;5010985;28;20545;-70
2022/09/17 09:24:10;;;;;;;11.40;4.93;;;29.00;99.90;;;;;;5004805;28;20188;-70
2022/09/17 09:27:01;;;;;;;6.13;4.35;;;29.20;99.90;;;;;;5002478;28;20192;-70
2022/09/17 09:30:08;;;;;;;9.52;4.50;;;29.30;99.90;;;;;;5011119;28;20193;-70
2022/09/17 09:33:12;;;;;;;12.07;4.35;;;29.50;99.90;;;;;;4992660;28;20203;-70
2022/09/17 09:35:43;;;;;;;9.90;4.75;;;29.70;99.90;;;;;;5010821;28;20204;-70
2022/09/17 09:38:39;;;;;;;9.82;4.70;;;29.70;99.90;;;;;;5009149;28;20638;-70
2022/09/17 09:41:35;;;;;;;8.43;4.78;;;29.90;99.90;;;;;;4995710;28;20603;-70
2022/09/17 09:44:11;;;;;;;5.30;4.30;;;30.30;99.90;;;;;;4986315;28;20283;-73
2022/09/17 09:47:53;;;;;;;11.60;4.78;;;30.70;99.90;;;;;;4996040;28;20191;-71
2022/09/17 09:50:44;;;;;;;5.55;4.80;;;31.10;99.90;;;;;;4998636;28;20243;-72
2022/09/17 09:53:34;;;;;;;9.13;4.53;;;32.20;99.90;;;;;;4978787;28;20204;-72
2022/09/17 09:56:31;;;;;;;4.82;3.97;;;33.70;99.90;;;;;;4989348;28;20272;-69
2022/09/17 09:58:58;;;;;;;10.80;4.25;;;35.30;99.90;;;;;;5012661;28;20200;-70
2022/09/17 10:01:30;;;;;;;9.15;4.10;;;34.40;99.90;;;;;;5022015;28;20285;-70
2022/09/17 10:03:57;;;;;;;11.50;4.07;;;33.50;99.90;;;;;;5011176;28;20184;-70
2022/09/17 10:06:30;;;;;;;4.55;4.15;;;32.50;99.90;;;;;;4976492;28;20304;-72
2022/09/17 10:08:56;;;;;;;9.35;4.45;;;32.10;99.90;;;;;;5003256;28;20700;-72
2022/09/17 10:11:31;;;;;;;9.43;3.83;;;32.20;99.90;;;;;;5009992;28;20553;-72
2022/09/17 10:14:25;;;;;;;12.50;3.92;;;32.10;99.90;;;;;;4989159;28;20677;-72
2022/09/17 10:17:26;;;;;;;6.13;3.58;;;33.50;99.90;;;;;;4979119;28;20203;-70
2022/09/17 10:20:04;;;;;;;4.47;3.65;;;34.80;99.90;;;;;;4973273;28;20201;-70
2022/09/17 10:22:39;;;;;;;6.35;3.50;;;36.40;99.90;;;;;;4987880;28;20193;-70
2022/09/17 10:25:24;;;;;;;7.28;3.47;;;36.60;99.90;;;;;;5005026;28;20208;-70
2022/09/17 10:27:50;;;;;;;12.30;3.58;;;35.00;99.90;;;;;;5010216;28;20176;-70
2022/09/17 10:30:18;;;;;;;5.82;3.17;;;33.70;99.90;;;;;;4997899;28;20250;-72
2022/09/17 10:33:22;;;;;;;8.40;3.10;;;32.70;99.90;;;;;;4971313;28;20488;-72
2022/09/17 10:36:15;;;;;;;4.35;3.08;;;32.00;99.90;;;;;;4999282;28;20220;-73
2022/09/17 10:38:46;;;;;;;5.65;2.75;;;31.80;99.90;;;;;;5003565;28;20231;-73
2022/09/17 10:41:30;;;;;;;6.40;3.30;;;31.70;99.90;;;;;;5005833;28;20189;-73
2022/09/17 10:44:16;;;;;;;11.88;3.35;;;31.70;99.90;;;;;;4990384;28;20669;-73
2022/09/17 10:46:43;;;;;;;8.93;3.50;;;31.60;99.90;;;;;;4980364;28;20823;-73
2022/09/17 10:49:52;;;;;;;9.07;2.75;;;31.60;99.90;;;;;;5009302;28;20201;-73
2022/09/17 10:52:33;;;;;;;8.07;3.00;;;31.40;99.90;;;;;;4995218;28;20180;-73
2022/09/17 10:55:21;;;;;;;6.75;3.13;;;31.30;99.90;;;;;;4997258;28;20204;-73
2022/09/17 10:58:06;;;;;;;7.80;3.08;;;31.30;99.90;;;;;;4970949;28;20551;-73
2022/09/17 11:01:29;;;;;;;4.63;3.00;;;31.30;99.90;;;;;;5001244;28;20275;-74
2022/09/17 11:04:25;;;;;;;5.75;2.95;;;31.30;99.90;;;;;;4984324;28;20287;-71
2022/09/17 11:07:39;;;;;;;5.82;2.83;;;31.20;99.90;;;;;;5005063;28;20531;-74
2022/09/17 11:10:28;;;;;;;3.92;2.58;;;31.30;99.90;;;;;;5005968;28;20267;-71
2022/09/17 11:13:23;;;;;;;5.85;2.65;;;31.20;99.90;;;;;;4997055;28;20177;-71
2022/09/17 11:16:06;;;;;;;8.35;2.70;;;31.20;99.90;;;;;;5003391;28;20686;-71
2022/09/17 11:19:07;;;;;;;4.22;2.30;;;31.20;99.90;;;;;;5007783;28;20196;-71
2022/09/17 11:21:53;;;;;;;8.40;2.50;;;31.10;99.90;;;;;;4976398;28;20181;-70
2022/09/17 11:24:53;;;;;;;4.75;2.50;;;31.10;99.90;;;;;;4993265;28;20249;-71
2022/09/17 11:27:29;;;;;;;4.22;2.60;;;31.10;99.90;;;;;;5003877;28;20184;-73
2022/09/17 11:30:04;;;;;;;10.30;2.75;;;31.00;99.90;;;;;;4995934;28;20216;-73
2022/09/17 11:33:05;;;;;;;6.85;2.42;;;31.00;99.90;;;;;;4985965;28;20276;-72
2022/09/17 11:35:58;;;;;;;4.50;2.40;;;31.00;99.90;;;;;;4986150;28;20339;-72
2022/09/17 11:38:42;;;;;;;8.48;3.17;;;31.00;99.90;;;;;;4999545;28;20235;-72
2022/09/17 11:41:32;;;;;;;4.93;2.30;;;31.00;99.90;;;;;;4992831;28;20181;-71
2022/09/17 11:44:13;;;;;;;4.75;2.20;;;30.90;99.90;;;;;;4987870;28;20190;-71
2022/09/17 11:47:06;;;;;;;12.23;2.60;;;30.90;99.90;;;;;;4993980;28;20922;-71
2022/09/17 11:49:59;;;;;;;7.78;2.92;;;31.00;99.90;;;;;;4997756;28;20186;-73
2022/09/17 11:52:46;;;;;;;11.57;2.83;;;31.00;99.90;;;;;;5007655;28;20185;-71
2022/09/17 11:55:45;;;;;;;6.75;2.47;;;31.10;99.90;;;;;;5005676;28;20204;-72
2022/09/17 11:58:44;;;;;;;7.55;2.38;;;31.20;99.90;;;;;;4987839;28;20172;-72
2022/09/17 12:01:50;;;;;;;4.22;2.30;;;31.10;99.50;;;;;;4975241;28;20192;-72
2022/09/17 12:04:56;;;;;;;4.88;2.60;;;31.00;99.70;;;;;;5001770;28;20674;-71
2022/09/17 12:07:49;;;;;;;9.65;2.20;;;31.20;99.90;;;;;;4982730;28;20523;-72
2022/09/17 12:10:31;;;;;;;6.88;2.40;;;31.20;99.90;;;;;;5001261;28;20189;-72
2022/09/17 12:13:36;;;;;;;8.57;2.70;;;31.00;99.90;;;;;;4991271;28;20199;-72
2022/09/17 12:16:31;;;;;;;9.95;2.60;;;31.00;99.90;;;;;;4998405;28;20620;-73
2022/09/17 12:19:24;;;;;;;10.73;2.78;;;30.90;99.90;;;;;;4974026;28;20251;-73
2022/09/17 12:22:20;;;;;;;4.32;2.40;;;30.90;99.90;;;;;;5003562;28;20220;-73
2022/09/17 12:24:54;;;;;;;9.18;2.63;;;30.80;99.90;;;;;;4986733;28;20204;-73
2022/09/17 12:27:49;;;;;;;7.45;2.63;;;30.70;99.90;;;;;;5000779;28;20686;-73
2022/09/17 12:30:46;;;;;;;7.80;2.53;;;30.60;99.90;;;;;;5004610;28;20201;-73
2022/09/17 12:33:48;;;;;;;8.52;2.58;;;30.60;99.90;;;;;;4991220;28;20188;-72
2022/09/17 12:36:54;;;;;;;5.30;2.60;;;30.60;99.90;;;;;;4996034;28;20234;-73
2022/09/17 12:39:52;;;;;;;5.68;2.47;;;30.50;99.90;;;;;;5011109;28;20188;-72
2022/09/17 12:43:00;;;;;;;7.78;2.50;;;30.50;99.90;;;;;;4994263;28;20196;-73
2022/09/17 12:45:58;;;;;;;8.05;2.53;;;30.50;99.90;;;;;;4994069;28;20927;-73
2022/09/17 12:49:18;;;;;;;11.52;2.55;;;30.40;99.90;;;;;;4941766;28;20667;-73
2022/09/17 12:52:05;;;;;;;12.65;2.85;;;30.30;99.90;;;;;;5010520;28;20214;-73
2022/09/17 12:55:26;;;;;;;6.57;2.40;;;30.30;99.90;;;;;;5012161;28;20562;-73
2022/09/17 12:58:32;;;;;;;7.28;2.70;;;30.20;99.90;;;;;;5008678;28;20181;-73
2022/09/17 13:01:13;;;;;;;9.43;2.75;;;30.20;99.90;;;;;;4975247;28;20201;-73
2022/09/17 13:03:44;;;;;;;6.05;2.20;;;30.30;99.90;;;;;;4990708;28;20264;-73
2022/09/17 13:06:41;;;;;;;10.35;2.25;;;30.30;99.90;;;;;;4974857;28;20192;-73
2022/09/17 13:09:32;;;;;;;5.60;2.53;;;30.10;99.90;;;;;;5008271;28;20293;-73
2022/09/17 13:12:31;;;;;;;9.43;2.58;;;29.90;99.90;;;;;;4993885;28;20185;-73
2022/09/17 13:15:19;;;;;;;10.07;2.72;;;30.00;99.90;;;;;;4993648;28;20205;-73
2022/09/17 13:18:24;;;;;;;4.75;2.70;;;30.00;99.90;;;;;;5006825;28;20188;-73
2022/09/17 13:21:02;;;;;;;7.28;2.60;;;29.90;99.90;;;;;;5009765;28;20540;-71
2022/09/17 13:23:48;;;;;;;8.25;2.42;;;29.80;99.90;;;;;;5006391;28;20173;-73
2022/09/17 13:26:19;;;;;;;4.22;2.47;;;29.80;99.90;;;;;;5001377;28;20195;-73
2022/09/17 13:28:51;;;;;;;10.13;2.70;;;29.60;99.90;;;;;;5007011;28;20189;-73
2022/09/17 13:31:38;;;;;;;6.35;2.70;;;29.60;99.90;;;;;;5007402;28;20833;-73
2022/09/17 13:34:17;;;;;;;8.70;2.83;;;29.50;99.90;;;;;;4991633;28;20181;-72
2022/09/17 13:36:55;;;;;;;4.25;2.28;;;29.50;99.90;;;;;;4993999;28;20295;-72
2022/09/17 13:39:49;;;;;;;8.82;2.70;;;29.50;99.90;;;;;;5011448;28;20185;-73
2022/09/17 13:42:27;;;;;;;6.50;2.35;;;29.40;99.90;;;;;;4993161;28;20378;-73
2022/09/17 13:45:12;;;;;;;3.38;2.40;;;29.40;99.90;;;;;;5011151;28;20201;-73